createdAt,value
2023-04-28T00:00:45.041Z,6.38
2023-04-28T00:05:49.696Z,7.32
2023-04-28T00:10:54.145Z,7.20
2023-04-28T00:15:56.260Z,6.40
2023-04-28T00:20:57.962Z,5.88
2023-04-28T00:25:59.615Z,7.65
2023-04-28T00:31:01.350Z,6.78
2023-04-28T00:36:03.369Z,8.45
2023-04-28T00:41:06.724Z,8.23
2023-04-28T00:46:08.555Z,7.18
2023-04-28T00:51:10.401Z,5.85
2023-04-28T00:56:12.862Z,6.50
2023-04-28T01:01:16.245Z,9.05
2023-04-28T01:06:18.607Z,10.50
2023-04-28T01:11:20.657Z,14.38
2023-04-28T01:16:43.278Z,9.05
2023-04-28T01:21:44.993Z,6.50
2023-04-28T01:26:56.592Z,6.07
2023-04-28T01:31:58.496Z,9.55
2023-04-28T01:37:00.392Z,6.68
2023-04-28T01:42:02.361Z,7.65
2023-04-28T01:47:04.092Z,5.60
2023-04-28T01:52:06.946Z,6.28
2023-04-28T01:57:08.785Z,6.18
2023-04-28T02:02:11.665Z,6.13
2023-04-28T02:07:13.401Z,6.25
2023-04-28T02:12:18.584Z,6.30
2023-04-28T02:17:20.791Z,7.75
2023-04-28T02:22:23.096Z,8.68
2023-04-28T02:27:24.879Z,6.40
2023-04-28T02:32:26.846Z,8.77
2023-04-28T02:37:28.502Z,6.63
2023-04-28T02:42:30.285Z,6.47
2023-04-28T02:47:31.997Z,5.45
2023-04-28T02:52:33.926Z,8.70
2023-04-28T02:57:35.838Z,7.18
2023-04-28T03:02:38.091Z,8.23
2023-04-28T03:07:39.964Z,6.35
2023-04-28T03:12:41.640Z,5.22
2023-04-28T03:17:43.558Z,8.13
2023-04-28T03:22:46.086Z,7.70
2023-04-28T03:27:48.323Z,5.95
2023-04-28T03:32:50.048Z,6.28
2023-04-28T03:37:54.707Z,9.70
2023-04-28T03:43:00.882Z,7.13
2023-04-28T03:48:08.063Z,6.07
2023-04-28T03:53:09.705Z,5.93
2023-04-28T03:58:11.454Z,9.38
2023-04-28T04:03:13.260Z,7.30
2023-04-28T04:08:15.454Z,9.43
2023-04-28T04:13:19.830Z,7.15
2023-04-28T04:18:22.241Z,7.82
2023-04-28T04:23:53.021Z,7.28
2023-04-28T04:28:54.701Z,8.23
2023-04-28T04:33:56.398Z,7.25
2023-04-28T04:38:59.002Z,8.30
2023-04-28T04:44:01.053Z,9.88
2023-04-28T04:49:10.571Z,7.68
2023-04-28T04:54:12.313Z,8.48
2023-04-28T04:59:17.637Z,8.15
2023-04-28T05:04:30.663Z,8.60
2023-04-28T05:09:33.216Z,8.20
2023-04-28T05:14:35.647Z,7.45
2023-04-28T05:19:37.580Z,8.57
2023-04-28T05:24:39.506Z,10.45
2023-04-28T05:29:41.587Z,7.03
2023-04-28T05:34:44.848Z,7.88
2023-04-28T05:39:47.535Z,7.53
2023-04-28T05:44:49.281Z,9.88
2023-04-28T05:49:51.082Z,8.82
2023-04-28T05:54:52.842Z,10.23
2023-04-28T05:59:54.588Z,9.73
2023-04-28T06:04:57.165Z,9.55
2023-04-28T06:09:59.528Z,12.15
2023-04-28T06:15:01.260Z,10.25
2023-04-28T06:20:03.391Z,12.50
2023-04-28T06:25:06.666Z,10.57
2023-04-28T06:30:27.181Z,10.43
2023-04-28T06:35:29.804Z,12.07
2023-04-28T06:40:31.945Z,11.20
2023-04-28T06:45:35.605Z,9.20
2023-04-28T06:50:37.997Z,9.15
2023-04-28T06:55:50.839Z,9.77
2023-04-28T07:00:52.528Z,13.60
2023-04-28T07:05:54.267Z,15.15
2023-04-28T07:10:56.036Z,9.18
2023-04-28T07:15:57.846Z,12.13
2023-04-28T07:20:59.653Z,10.63
2023-04-28T07:26:01.378Z,11.77
2023-04-28T07:31:03.117Z,10.73
2023-04-28T07:36:06.246Z,10.43
2023-04-28T07:41:10.105Z,11.05
2023-04-28T07:46:13.423Z,10.48
2023-04-28T07:51:15.066Z,10.00
2023-04-28T07:56:17.626Z,11.77
2023-04-28T08:01:19.388Z,9.20
2023-04-28T08:06:21.031Z,11.40
2023-04-28T08:11:22.815Z,10.88
2023-04-28T08:16:24.763Z,12.40
2023-04-28T08:21:27.115Z,12.23
2023-04-28T08:26:29.428Z,13.75
2023-04-28T08:31:31.243Z,12.30
2023-04-28T08:36:33.544Z,14.10
2023-04-28T08:41:41.096Z,12.77
2023-04-28T08:46:44.321Z,14.85
2023-04-28T08:51:51.260Z,18.52
2023-04-28T08:56:53.051Z,18.20
2023-04-28T09:01:54.804Z,18.40
2023-04-28T09:06:56.579Z,16.75
2023-04-28T09:12:00.936Z,17.25
2023-04-28T09:17:09.171Z,18.70
2023-04-28T09:22:25.613Z,15.90
2023-04-28T09:27:29.496Z,18.35
2023-04-28T09:32:31.820Z,16.27
2023-04-28T09:37:37.379Z,16.30
2023-04-28T09:42:44.175Z,19.27
2023-04-28T09:47:51.968Z,17.13
2023-04-28T09:52:57.829Z,16.73
2023-04-28T09:58:06.054Z,17.13
2023-04-28T10:03:09.795Z,17.23
2023-04-28T10:08:13.595Z,17.08
2023-04-28T10:13:19.549Z,17.02
2023-04-28T10:18:23.815Z,17.23
2023-04-28T10:23:25.444Z,16.80
2023-04-28T10:28:27.799Z,22.10
2023-04-28T10:33:29.956Z,23.05
2023-04-28T10:38:32.188Z,21.77
2023-04-28T10:43:39.312Z,22.13
2023-04-28T10:48:47.650Z,24.35
2023-04-28T10:53:50.352Z,24.08
2023-04-28T10:58:54.243Z,26.55
2023-04-28T11:04:01.117Z,23.60
2023-04-28T11:09:15.445Z,21.58
2023-04-28T11:14:18.503Z,19.95
2023-04-28T11:19:22.347Z,13.95
2023-04-28T11:24:29.531Z,5.53
2023-04-28T11:29:38.424Z,5.50
2023-04-28T11:34:40.119Z,5.93
2023-04-28T11:39:42.655Z,6.97
2023-04-28T11:44:52.864Z,9.13
2023-04-28T11:49:54.542Z,9.88
2023-04-28T11:55:00.072Z,4.00
2023-04-28T12:00:19.212Z,3.08
2023-04-28T12:05:22.515Z,2.60
2023-04-28T12:10:24.361Z,4.80
2023-04-28T12:15:40.855Z,3.63
2023-04-28T12:20:43.611Z,5.95
2023-04-28T12:25:46.324Z,8.93
2023-04-28T12:30:49.046Z,9.13
2023-04-28T12:35:50.771Z,7.55
2023-04-28T12:40:52.900Z,7.03
2023-04-28T12:45:58.030Z,9.57
2023-04-28T12:51:00.450Z,8.82
2023-04-28T12:56:02.173Z,10.52
2023-04-28T13:01:04.673Z,13.60
2023-04-28T13:06:06.329Z,13.75
2023-04-28T13:11:21.988Z,19.23
2023-04-28T13:16:29.911Z,14.90
2023-04-28T13:21:31.962Z,15.85
2023-04-28T13:26:33.771Z,17.27
2023-04-28T13:31:35.607Z,17.65
2023-04-28T13:36:37.429Z,15.90
2023-04-28T13:41:39.010Z,15.60
2023-04-28T13:46:40.692Z,18.38
2023-04-28T13:51:42.775Z,18.98
2023-04-28T13:56:44.411Z,14.40
2023-04-28T14:01:46.296Z,18.40
2023-04-28T14:06:50.602Z,13.98
2023-04-28T14:11:52.209Z,15.02
2023-04-28T14:16:53.923Z,14.02
2023-04-28T14:21:55.731Z,13.90
2023-04-28T14:26:57.878Z,12.20
2023-04-28T14:31:59.538Z,14.90
2023-04-28T14:37:01.362Z,10.43
2023-04-28T14:42:03.963Z,13.07
2023-04-28T14:47:05.599Z,10.82
2023-04-28T14:52:07.268Z,15.05
2023-04-28T14:57:08.939Z,12.65
2023-04-28T15:02:12.632Z,15.07
2023-04-28T15:07:14.552Z,15.82
2023-04-28T15:12:16.290Z,17.90
2023-04-28T15:17:20.721Z,20.45
2023-04-28T15:22:22.430Z,16.38
2023-04-28T15:27:24.109Z,14.52
2023-04-28T15:32:26.266Z,14.50
2023-04-28T15:37:44.562Z,12.88
2023-04-28T15:42:49.638Z,16.10
2023-04-28T15:47:51.872Z,17.45
2023-04-28T15:52:53.714Z,10.55
2023-04-28T15:57:56.372Z,13.25
2023-04-28T16:02:58.189Z,12.80
2023-04-28T16:08:00.145Z,20.02
2023-04-28T16:13:02.066Z,14.60
2023-04-28T16:18:07.157Z,14.98
2023-04-28T16:23:13.309Z,17.40
2023-04-28T16:28:15.804Z,15.85
2023-04-28T16:33:20.115Z,19.42
2023-04-28T16:38:23.900Z,16.33
2023-04-28T16:43:25.635Z,18.70
2023-04-28T16:48:27.750Z,20.63
2023-04-28T16:53:29.392Z,24.52
2023-04-28T16:58:31.502Z,20.45
2023-04-28T17:03:34.457Z,25.98
2023-04-28T17:08:36.574Z,34.25
2023-04-28T17:13:38.444Z,27.95
2023-04-28T17:18:41.352Z,28.45
2023-04-28T17:23:43.050Z,31.23
2023-04-28T17:28:44.717Z,37.47
2023-04-28T17:33:48.615Z,42.67
2023-04-28T17:38:51.048Z,41.08
2023-04-28T17:43:52.735Z,40.78
2023-04-28T17:48:54.399Z,38.30
2023-04-28T17:53:56.980Z,34.95
2023-04-28T17:58:58.700Z,36.75
2023-04-28T18:04:00.470Z,38.50
2023-04-28T18:09:02.321Z,40.03
2023-04-28T18:14:05.082Z,39.17
2023-04-28T18:19:06.676Z,38.10
2023-04-28T18:24:08.429Z,42.72
2023-04-28T18:29:10.109Z,42.60
2023-04-28T18:34:11.921Z,39.60
2023-04-28T18:39:13.701Z,42.92
2023-04-28T18:44:15.326Z,51.40
2023-04-28T18:49:18.565Z,49.15
2023-04-28T18:54:20.288Z,52.80
2023-04-28T18:59:21.931Z,55.85
2023-04-28T19:04:23.928Z,49.03
2023-04-28T19:09:25.812Z,45.55
2023-04-28T19:14:27.388Z,37.50
2023-04-28T19:19:28.997Z,38.03
2023-04-28T19:24:30.656Z,33.83
2023-04-28T19:29:32.401Z,32.72
2023-04-28T19:34:34.031Z,32.38
2023-04-28T19:39:36.449Z,29.58
2023-04-28T19:44:38.261Z,29.55
2023-04-28T19:49:42.378Z,29.98
2023-04-28T19:54:45.062Z,27.70
2023-04-28T19:59:50.415Z,25.55
2023-04-28T20:04:52.294Z,20.75
2023-04-28T20:09:56.149Z,20.50
2023-04-28T20:14:57.987Z,19.65
2023-04-28T20:19:59.620Z,14.63
2023-04-28T20:25:05.876Z,19.88
2023-04-28T20:30:08.016Z,13.82
2023-04-28T20:35:09.941Z,16.80
2023-04-28T20:40:12.132Z,10.93
2023-04-28T20:45:13.807Z,12.95
2023-04-28T20:50:15.691Z,9.90
2023-04-28T20:55:17.809Z,10.23
2023-04-28T21:00:19.673Z,11.68
2023-04-28T21:05:22.650Z,9.45
2023-04-28T21:10:24.281Z,9.05
2023-04-28T21:15:26.286Z,11.15
2023-04-28T21:20:28.750Z,11.77
2023-04-28T21:25:30.564Z,11.27
2023-04-28T21:30:34.644Z,12.75
2023-04-28T21:35:36.630Z,11.20
2023-04-28T21:40:38.198Z,12.80
2023-04-28T21:45:39.821Z,13.95
2023-04-28T21:50:41.735Z,16.20
2023-04-28T21:55:44.732Z,16.20
2023-04-28T22:00:47.361Z,17.60
2023-04-28T22:05:49.432Z,20.85
2023-04-28T22:10:51.194Z,21.63
2023-04-28T22:15:53.030Z,17.55
2023-04-28T22:20:54.689Z,17.17
2023-04-28T22:26:01.143Z,20.63
2023-04-28T22:31:03.220Z,18.48
2023-04-28T22:36:05.500Z,18.58
2023-04-28T22:41:07.058Z,21.23
2023-04-28T22:46:08.911Z,20.67
2023-04-28T22:51:10.663Z,23.35
2023-04-28T22:56:12.292Z,26.30
2023-04-28T23:01:14.059Z,23.42
2023-04-28T23:06:15.929Z,23.80
2023-04-28T23:11:19.107Z,22.20
2023-04-28T23:16:20.980Z,22.55
2023-04-28T23:21:22.891Z,18.80
2023-04-28T23:26:24.807Z,18.63
2023-04-28T23:31:26.643Z,21.88
2023-04-28T23:36:28.766Z,22.63
2023-04-28T23:41:30.525Z,22.63
2023-04-28T23:46:32.181Z,26.73
2023-04-28T23:51:33.793Z,26.63
2023-04-28T23:56:35.454Z,23.05
